Time;durP1;ratioP1;P1;durP2;ratioP2;P2;SDS_P1;SDS_P2;PMS_P1;PMS_P2;Temp;Humidity;BMP_temperature;BMP_pressure;BME280_temperature;BME280_humidity;BME280_pressure;Samples;Min_cycle;Max_cycle;Signal;HPM_P1;HPM_P2
2021/03/12 00:04:02;;;;;;;8.57;2.20;;;;;;;6.19;99.62;99704.75;10158415;29;20048;-70
2021/03/12 00:09:04;;;;;;;14.93;2.78;;;;;;;6.12;99.78;99705.91;10175515;29;20099;-70
2021/03/12 00:14:15;;;;;;;6.50;2.83;;;;;;;6.03;99.83;99709.72;10176319;29;20111;-71
2021/03/12 00:19:16;;;;;;;7.43;2.60;;;;;;;5.91;100.00;99715.47;10160277;29;20048;-70
2021/03/12 00:24:17;;;;;;;8.32;2.80;;;;;;;5.95;100.00;99745.78;10176359;29;20059;-70
2021/03/12 00:29:21;;;;;;;11.18;2.72;;;;;;;6.04;100.00;99766.34;10176200;29;20095;-70
2021/03/12 00:34:22;;;;;;;9.30;3.38;;;;;;;6.08;100.00;99799.31;10191565;29;20052;-70
2021/03/12 00:39:23;;;;;;;7.75;2.38;;;;;;;6.00;100.00;99790.91;10175503;29;20115;-70
2021/03/12 00:44:39;;;;;;;12.38;3.78;;;;;;;5.94;100.00;99806.00;10189014;29;20052;-69
2021/03/12 00:49:41;;;;;;;7.10;2.15;;;;;;;5.75;100.00;99799.72;10170753;29;20064;-68
2021/03/12 00:54:42;;;;;;;7.03;2.55;;;;;;;5.45;100.00;99784.25;10152163;29;20063;-70
2021/03/12 00:59:53;;;;;;;7.60;2.90;;;;;;;5.42;100.00;99794.81;10154413;29;20049;-70
2021/03/12 01:04:55;;;;;;;8.77;3.17;;;;;;;5.55;100.00;99823.97;10175092;29;20048;-69
2021/03/12 01:09:56;;;;;;;5.63;2.72;;;;;;;5.64;100.00;99841.91;10175079;29;20036;-70
2021/03/12 01:15:08;;;;;;;8.77;2.50;;;;;;;5.62;100.00;99844.56;10175139;29;20048;-70
2021/03/12 01:20:25;;;;;;;8.27;2.70;;;;;;;5.63;100.00;99848.91;10143072;29;20112;-69
2021/03/12 01:25:30;;;;;;;8.50;2.63;;;;;;;5.75;100.00;99868.53;10143727;29;20534;-69
2021/03/12 01:30:36;;;;;;;8.30;2.67;;;;;;;5.79;100.00;99882.31;10142970;29;20054;-71
2021/03/12 01:35:55;;;;;;;9.45;2.88;;;;;;;5.80;100.00;99894.47;10143598;29;20381;-70
2021/03/12 01:40:56;;;;;;;10.38;2.95;;;;;;;5.75;100.00;99894.66;10142274;29;20469;-70
2021/03/12 01:46:01;;;;;;;8.37;2.60;;;;;;;5.75;100.00;99910.34;10157652;29;20052;-71
2021/03/12 01:51:05;;;;;;;9.48;3.22;;;;;;;5.83;100.00;99917.91;10142940;29;20431;-70
2021/03/12 01:56:07;;;;;;;8.48;2.63;;;;;;;5.83;100.00;99912.66;10141753;29;20120;-69
2021/03/12 02:01:19;;;;;;;13.77;3.72;;;;;;;5.81;100.00;99915.34;10157581;29;20365;-71
2021/03/12 02:06:29;;;;;;;12.07;2.92;;;;;;;5.77;100.00;99926.81;10131160;29;20147;-70
2021/03/12 02:11:35;;;;;;;10.07;3.47;;;;;;;5.70;100.00;99923.56;10180350;29;20056;-70
2021/03/12 02:16:43;;;;;;;9.85;2.92;;;;;;;5.63;100.00;99923.81;10180118;29;20071;-69
2021/03/12 02:21:55;;;;;;;10.15;2.90;;;;;;;5.63;100.00;99929.03;10181078;29;20123;-70
2021/03/12 02:27:03;;;;;;;13.18;3.40;;;;;;;5.67;100.00;99933.28;10178941;29;20143;-70
2021/03/12 02:32:10;;;;;;;15.43;3.85;;;;;;;5.68;100.00;99940.22;10180251;29;20453;-69
2021/03/12 02:37:14;;;;;;;13.05;3.72;;;;;;;5.69;100.00;99950.59;10179220;29;20052;-70
2021/03/12 02:42:21;;;;;;;10.80;3.67;;;;;;;5.62;100.00;99949.09;10179542;29;20056;-70
2021/03/12 02:47:30;;;;;;;15.20;3.95;;;;;;;5.68;100.00;99966.34;10178134;29;20103;-70
2021/03/12 02:52:43;;;;;;;14.63;3.90;;;;;;;5.78;100.00;99978.16;10178906;29;20044;-70
2021/03/12 02:57:46;;;;;;;12.52;4.03;;;;;;;5.86;100.00;99989.19;10178424;29;20051;-70
2021/03/12 03:02:49;;;;;;;13.27;4.70;;;;;;;5.85;100.00;99991.88;10178133;29;20466;-70
2021/03/12 03:08:01;;;;;;;11.80;4.63;;;;;;;5.80;100.00;99978.13;10178204;29;20055;-70
2021/03/12 03:13:02;;;;;;;12.32;3.20;;;;;;;5.78;100.00;99985.16;10178132;29;20079;-70
2021/03/12 03:18:05;;;;;;;10.60;3.45;;;;;;;5.82;100.00;99981.53;10176823;29;20059;-69
2021/03/12 03:23:15;;;;;;;17.15;3.28;;;;;;;5.85;99.77;99989.28;10178140;29;20047;-70
2021/03/12 03:28:18;;;;;;;12.02;3.83;;;;;;;5.87;98.09;99993.53;10177557;29;20063;-69
2021/03/12 03:33:20;;;;;;;21.27;3.75;;;;;;;5.86;97.24;99983.16;10177761;29;20040;-70
2021/03/12 03:38:21;;;;;;;10.70;2.90;;;;;;;5.90;95.95;99984.75;10176127;29;20056;-69
2021/03/12 03:43:30;;;;;;;10.63;4.03;;;;;;;5.88;95.76;99992.66;10177105;29;20071;-69
2021/03/12 03:48:36;;;;;;;11.07;3.55;;;;;;;5.88;94.74;99989.19;10176065;29;20072;-71
2021/03/12 03:53:40;;;;;;;9.27;3.38;;;;;;;5.88;93.70;99990.03;10176692;29;20190;-70
2021/03/12 03:58:42;;;;;;;10.00;2.88;;;;;;;5.78;94.11;99986.00;10176487;29;20051;-70
2021/03/12 04:03:46;;;;;;;13.47;3.87;;;;;;;5.69;95.23;99981.13;10177162;29;20052;-70
2021/03/12 04:08:48;;;;;;;16.17;3.85;;;;;;;5.62;96.75;99976.97;10175811;29;20146;-70
2021/03/12 04:13:51;;;;;;;12.30;3.42;;;;;;;5.62;97.70;99987.44;10177005;29;20056;-70
2021/03/12 04:19:01;;;;;;;14.52;3.67;;;;;;;5.57;99.04;99989.34;10176867;29;20055;-70
2021/03/12 04:24:04;;;;;;;14.88;4.10;;;;;;;5.53;100.00;99988.59;10176828;29;20549;-70
2021/03/12 04:29:05;;;;;;;18.85;4.53;;;;;;;5.55;100.00;99996.38;10175495;29;20458;-69
2021/03/12 04:34:09;;;;;;;12.87;4.93;;;;;;;5.49;100.00;99999.22;10176696;29;20075;-70
2021/03/12 04:39:12;;;;;;;12.63;3.53;;;;;;;5.38;100.00;99994.34;10175861;29;20049;-70
2021/03/12 04:44:16;;;;;;;14.80;4.07;;;;;;;5.28;100.00;100006.84;10176021;29;20079;-70
2021/03/12 04:49:19;;;;;;;15.23;3.53;;;;;;;5.40;100.00;100034.31;10177601;29;20071;-70
2021/03/12 04:54:21;;;;;;;12.57;3.40;;;;;;;5.43;100.00;100034.25;10183322;29;20060;-70
2021/03/12 04:59:24;;;;;;;15.07;3.80;;;;;;;5.47;100.00;100045.41;10182806;29;20052;-70
2021/03/12 05:04:27;;;;;;;12.93;3.78;;;;;;;5.34;100.00;100035.38;10182854;29;20466;-70
2021/03/12 05:09:31;;;;;;;13.40;5.20;;;;;;;5.47;100.00;100056.72;10182579;29;20107;-70
2021/03/12 05:14:33;;;;;;;14.50;3.50;;;;;;;5.58;100.00;100070.31;10183079;29;20446;-70
2021/03/12 05:19:34;;;;;;;13.13;4.13;;;;;;;5.55;100.00;100067.78;10182488;29;20465;-70
2021/03/12 05:24:36;;;;;;;13.00;3.63;;;;;;;5.44;100.00;100050.78;10182124;29;20486;-71
2021/03/12 05:29:37;;;;;;;14.15;4.28;;;;;;;5.33;100.00;100044.13;10175606;29;20139;-69
2021/03/12 05:34:38;;;;;;;16.50;3.35;;;;;;;5.29;100.00;100052.09;10146073;29;20048;-70
2021/03/12 05:39:43;;;;;;;11.63;2.93;;;;;;;5.32;98.82;100057.22;10142409;29;20055;-69
2021/03/12 05:44:48;;;;;;;;;;;;;;;5.33;98.17;100045.88;10159084;29;20354;-70
2021/03/12 05:49:54;;;;;;;14.32;3.17;;;;;;;5.45;97.02;100062.91;10142121;29;19923;-70
2021/03/12 05:54:55;;;;;;;15.40;4.33;;;;;;;5.41;96.87;100062.16;10142104;29;20056;-71
2021/03/12 05:59:58;;;;;;;12.70;4.07;;;;;;;5.36;97.70;100058.00;10156630;29;20045;-70
2021/03/12 06:05:00;;;;;;;12.90;3.42;;;;;;;5.27;98.69;100046.91;10141796;29;20048;-70
2021/03/12 06:10:04;;;;;;;14.07;3.92;;;;;;;5.37;99.32;100065.75;10156487;29;20045;-70
2021/03/12 06:15:06;;;;;;;16.90;4.67;;;;;;;5.38;99.57;100069.22;10141409;29;20471;-69
2021/03/12 06:20:17;;;;;;;14.98;4.70;;;;;;;5.43;99.73;100075.19;10157023;29;20108;-70
2021/03/12 06:25:29;;;;;;;16.30;4.65;;;;;;;5.46;99.84;100070.69;10153374;29;20070;-70
2021/03/12 06:30:53;;;;;;;14.70;4.07;;;;;;;5.53;99.74;100094.84;10156552;29;20056;-70
2021/03/12 06:36:35;;;;;;;10.13;3.65;;;;;;;5.70;99.21;100110.84;10141007;29;20060;-67
2021/03/12 06:42:00;;;;;;;18.20;4.95;;;;;;;5.65;98.35;100111.00;10154826;29;20048;-74
2021/03/12 06:47:09;;;;;;;13.38;4.25;;;;;;;5.77;97.57;100121.97;10157902;29;20052;-70
2021/03/12 06:52:11;;;;;;;14.32;4.07;;;;;;;5.89;96.28;100132.06;10163321;29;20040;-69
2021/03/12 06:57:20;;;;;;;12.00;3.63;;;;;;;5.98;95.22;100148.31;10175621;29;20107;-68
2021/03/12 07:02:48;;;;;;;16.70;4.13;;;;;;;6.08;94.29;100141.00;10179425;29;20048;-68
2021/03/12 07:07:58;;;;;;;12.60;4.07;;;;;;;6.37;93.16;100187.97;10162044;29;20083;-70
2021/03/12 07:13:17;;;;;;;15.95;4.50;;;;;;;6.64;91.93;100203.63;10176887;29;20063;-66
2021/03/12 07:18:25;;;;;;;15.73;3.85;;;;;;;6.71;90.71;100192.03;10176536;29;20058;-69
2021/03/12 07:23:39;;;;;;;14.95;5.00;;;;;;;6.85;89.80;100195.91;10177215;29;20048;-71
2021/03/12 07:28:45;;;;;;;15.68;4.25;;;;;;;7.01;88.56;100200.56;10193121;29;20044;-70
2021/03/12 07:34:24;;;;;;;13.95;3.92;;;;;;;7.45;87.29;100233.84;10176689;29;20435;-70
2021/03/12 07:39:43;;;;;;;11.07;3.72;;;;;;;8.44;83.14;100305.22;10191552;29;20079;-70
2021/03/12 07:44:50;;;;;;;17.05;4.50;;;;;;;8.43;79.79;100246.63;10176448;29;20146;-70
2021/03/12 07:50:29;;;;;;;12.30;4.45;;;;;;;8.19;80.03;100205.63;10174820;29;20040;-70
2021/03/12 07:55:34;;;;;;;15.20;4.47;;;;;;;7.87;80.92;100165.78;10176309;29;20044;-69
2021/03/12 08:00:57;;;;;;;15.68;4.90;;;;;;;7.81;81.08;100147.66;10176313;29;20483;-65
2021/03/12 08:06:16;;;;;;;14.45;3.40;;;;;;;7.62;81.29;100125.72;10191233;29;20047;-67
2021/03/12 08:11:52;;;;;;;17.10;8.25;;;;;;;7.42;82.50;100123.03;10188162;29;20080;-63
2021/03/12 08:17:07;;;;;;;16.15;4.20;;;;;;;7.41;83.14;100131.81;10190755;29;20458;-64
2021/03/12 08:22:27;;;;;;;11.50;3.83;;;;;;;7.50;84.10;100145.41;10152830;29;20124;-64
2021/03/12 08:27:39;;;;;;;23.23;5.45;;;;;;;7.48;84.31;100142.00;10143246;29;20108;-65
2021/03/12 08:33:01;;;;;;;13.13;4.47;;;;;;;7.61;84.74;100163.38;10158852;29;20131;-68
2021/03/12 08:38:24;;;;;;;13.48;4.20;;;;;;;7.95;84.33;100210.91;10182307;29;20060;-68
2021/03/12 08:43:50;;;;;;;17.00;4.55;;;;;;;8.56;82.94;100241.72;10157689;29;20044;-65
2021/03/12 08:49:12;;;;;;;17.13;4.28;;;;;;;8.37;81.29;100184.72;10180619;29;20123;-65
2021/03/12 08:54:14;;;;;;;13.68;4.00;;;;;;;7.91;83.08;100128.03;10157059;29;20048;-67
2021/03/12 08:59:28;;;;;;;16.42;5.00;;;;;;;7.99;83.36;100140.81;10173249;29;20052;-64
2021/03/12 09:04:35;;;;;;;14.73;4.22;;;;;;;7.85;83.73;100122.19;10183159;29;20060;-68
2021/03/12 09:09:55;;;;;;;11.95;4.22;;;;;;;8.26;83.63;100191.31;10176315;29;20147;-68
2021/03/12 09:15:26;;;;;;;16.27;4.47;;;;;;;8.31;82.98;100185.00;10182197;29;20048;-69
2021/03/12 09:20:59;;;;;;;14.85;4.10;;;;;;;8.71;78.98;100163.13;10195543;29;20367;-65
2021/03/12 09:26:06;;;;;;;13.18;4.05;;;;;;;9.22;79.14;100245.84;10180071;29;20044;-66
2021/03/12 09:31:17;;;;;;;13.98;4.28;;;;;;;10.38;72.69;100238.63;10179210;29;20067;-65
2021/03/12 09:36:42;;;;;;;11.52;3.65;;;;;;;11.02;71.37;100296.00;10179008;29;20056;-67
2021/03/12 09:42:11;;;;;;;17.58;3.88;;;;;;;11.02;68.79;100227.47;10165340;29;20052;-62
2021/03/12 09:47:23;;;;;;;13.30;3.35;;;;;;;11.88;67.39;100272.13;10178220;29;20052;-62
2021/03/12 09:52:32;;;;;;;14.15;3.60;;;;;;;10.78;67.72;100157.59;10179736;29;20048;-63
2021/03/12 09:57:44;;;;;;;9.23;3.23;;;;;;;10.20;68.75;100092.13;10178265;29;20477;-62
2021/03/12 10:02:59;;;;;;;14.15;3.40;;;;;;;10.30;67.95;100081.97;10194361;29;20072;-64
2021/03/12 10:08:25;;;;;;;9.90;2.80;;;;;;;10.99;67.32;100159.09;10194816;29;20056;-68
2021/03/12 10:13:42;;;;;;;9.55;3.15;;;;;;;11.26;64.05;100111.94;10140025;29;20068;-67
2021/03/12 10:19:10;;;;;;;11.15;3.22;;;;;;;12.98;60.62;100236.69;10163040;29;20068;-65
2021/03/12 10:24:13;;;;;;;9.15;3.08;;;;;;;12.97;59.68;100168.91;10178454;29;20114;-65
2021/03/12 10:29:14;;;;;;;13.43;3.47;;;;;;;13.31;58.90;100162.41;10163224;29;20086;-64
2021/03/12 10:34:15;;;;;;;9.55;3.47;;;;;;;11.60;61.05;100006.25;10180306;29;20111;-67
2021/03/12 10:39:16;;;;;;;10.70;3.25;;;;;;;11.12;61.75;99977.41;10193589;29;20363;-68
2021/03/12 10:44:17;;;;;;;11.40;3.00;;;;;;;11.12;61.91;99987.94;10163508;29;20059;-69
2021/03/12 10:49:28;;;;;;;10.20;2.90;;;;;;;9.99;65.93;99936.13;10175981;29;20048;-69
2021/03/12 10:54:30;;;;;;;11.65;3.30;;;;;;;9.72;67.01;99927.03;10177126;29;20115;-69
2021/03/12 10:59:31;;;;;;;13.52;3.70;;;;;;;10.00;67.06;99948.34;10177776;29;20059;-68
2021/03/12 11:04:32;;;;;;;9.50;3.15;;;;;;;9.98;66.58;99942.31;10178349;29;20099;-69
2021/03/12 11:09:33;;;;;;;11.05;3.90;;;;;;;10.56;67.83;100034.06;10192254;29;20044;-69
2021/03/12 11:14:35;;;;;;;14.50;3.70;;;;;;;10.56;64.80;99962.94;10179106;29;20043;-68
2021/03/12 11:19:36;;;;;;;14.20;3.75;;;;;;;10.17;65.29;99937.81;10168127;29;20120;-69
2021/03/12 11:24:37;;;;;;;11.65;3.22;;;;;;;10.13;65.10;99909.06;10148357;29;20450;-71
2021/03/12 11:29:39;;;;;;;10.93;3.45;;;;;;;9.98;65.75;99894.94;10138384;29;20517;-70
2021/03/12 11:34:40;;;;;;;11.43;3.38;;;;;;;9.61;66.44;99876.78;10161908;29;20060;-69
2021/03/12 11:39:41;;;;;;;9.00;2.88;;;;;;;10.04;66.20;99933.28;10148623;29;20462;-70
2021/03/12 11:44:42;;;;;;;10.20;3.10;;;;;;;10.03;65.22;99885.06;10177656;29;20044;-70
2021/03/12 11:49:47;;;;;;;16.48;3.30;;;;;;;10.08;65.50;99893.53;10176654;29;20121;-70
2021/03/12 11:54:48;;;;;;;;;;;;;;;10.56;63.12;99932.19;10177339;29;20052;-70
2021/03/12 11:59:50;;;;;;;11.65;3.47;;;;;;;10.65;62.47;99896.56;10176620;29;20002;-70
2021/03/12 12:04:51;;;;;;;6.45;2.60;;;;;;;10.23;63.62;99849.78;10177256;29;20131;-68
2021/03/12 12:09:54;;;;;;;9.52;2.72;;;;;;;10.01;64.09;99810.59;10187824;29;20102;-68
2021/03/12 12:14:55;;;;;;;12.65;3.08;;;;;;;10.28;64.06;99847.75;10176623;29;20355;-68
2021/03/12 12:19:56;;;;;;;12.05;2.90;;;;;;;9.57;64.90;99754.28;10175121;29;20044;-70
2021/03/12 12:24:57;;;;;;;13.25;4.55;;;;;;;10.27;64.47;99860.06;10166931;29;20056;-68
2021/03/12 12:29:59;;;;;;;8.70;2.90;;;;;;;10.29;63.68;99840.72;10162437;29;20036;-68
2021/03/12 12:35:02;;;;;;;11.35;3.40;;;;;;;10.23;64.19;99842.72;10174765;29;20374;-65
2021/03/12 12:40:05;;;;;;;11.73;3.25;;;;;;;10.63;63.38;99814.16;10174626;29;20044;-68
2021/03/12 12:45:07;;;;;;;11.32;3.63;;;;;;;10.62;64.27;99813.34;10175700;29;20419;-70
2021/03/12 12:50:08;;;;;;;11.68;2.95;;;;;;;10.42;65.11;99794.31;10150957;29;20047;-69
2021/03/12 12:55:10;;;;;;;14.68;3.60;;;;;;;10.60;65.93;99824.88;10137474;29;20386;-68
2021/03/12 13:00:13;;;;;;;12.88;3.83;;;;;;;10.91;65.20;99840.63;10120618;29;20080;-68
2021/03/12 13:05:14;;;;;;;12.27;3.22;;;;;;;11.05;64.13;99820.53;10137257;29;20067;-70
2021/03/12 13:10:15;;;;;;;9.23;2.85;;;;;;;10.73;63.87;99720.50;10145245;29;20044;-70
2021/03/12 13:15:17;;;;;;;13.43;3.05;;;;;;;10.99;64.95;99790.09;10182611;29;20048;-69
2021/03/12 13:20:19;;;;;;;11.82;3.83;;;;;;;10.67;64.47;99722.63;10164436;29;20487;-68
2021/03/12 13:25:21;;;;;;;7.53;3.08;;;;;;;11.02;65.57;99777.59;10168322;29;20490;-68
2021/03/12 13:30:23;;;;;;;9.20;3.55;;;;;;;11.28;64.67;99775.19;10142823;29;20049;-69
2021/03/12 13:35:25;;;;;;;11.02;3.60;;;;;;;10.58;64.25;99677.47;10175486;29;20048;-69
2021/03/12 13:40:26;;;;;;;12.30;3.35;;;;;;;10.93;65.18;99741.25;10147389;29;20044;-69
2021/03/12 13:45:33;;;;;;;8.38;3.03;;;;;;;11.39;64.97;99764.81;10162128;29;20126;-68
2021/03/12 13:50:37;;;;;;;8.75;2.72;;;;;;;11.06;64.66;99709.72;10179728;29;20039;-68
2021/03/12 13:55:39;;;;;;;11.95;3.30;;;;;;;10.47;65.95;99653.53;10167314;29;20085;-65
2021/03/12 14:00:41;;;;;;;11.43;4.43;;;;;;;10.28;67.56;99681.91;10170039;29;20415;-68
2021/03/12 14:05:43;;;;;;;11.18;3.20;;;;;;;10.19;69.13;99687.69;10179991;29;20111;-69
2021/03/12 14:10:44;;;;;;;9.10;2.40;;;;;;;9.81;70.27;99656.47;10180743;29;20043;-69
2021/03/12 14:15:45;;;;;;;10.60;3.22;;;;;;;9.47;72.40;99641.72;10180646;29;20119;-70
2021/03/12 14:20:46;;;;;;;9.82;3.30;;;;;;;9.26;74.24;99640.28;10180441;29;20062;-70
2021/03/12 14:25:48;;;;;;;7.82;2.72;;;;;;;9.35;74.48;99659.94;10180768;29;20088;-69
2021/03/12 14:31:09;;;;;;;10.98;3.90;;;;;;;9.58;73.97;99698.97;10180271;29;20105;-69
2021/03/12 14:36:11;;;;;;;8.55;2.97;;;;;;;9.46;74.15;99679.44;10180372;29;20353;-69
2021/03/12 14:41:13;;;;;;;8.05;2.45;;;;;;;9.54;74.88;99699.25;10178797;29;20044;-70
2021/03/12 14:46:14;;;;;;;14.60;3.90;;;;;;;9.27;78.66;99677.91;10153489;29;20068;-69
2021/03/12 14:51:27;;;;;;;10.95;3.30;;;;;;;8.77;83.41;99677.94;10164525;29;20044;-69
2021/03/12 14:56:28;;;;;;;14.07;3.80;;;;;;;8.26;89.88;99672.59;10140525;29;20059;-69
2021/03/12 15:01:30;;;;;;;12.10;5.88;;;;;;;7.89;97.65;99673.53;10151505;29;20143;-69
2021/03/12 15:06:31;;;;;;;12.23;3.25;;;;;;;7.74;100.00;99699.66;10139139;29;20088;-68
2021/03/12 15:11:33;;;;;;;11.30;3.50;;;;;;;7.61;100.00;99723.78;10140257;29;20045;-69
2021/03/12 15:16:36;;;;;;;11.15;3.60;;;;;;;7.58;100.00;99737.06;10154852;29;20056;-69
2021/03/12 15:21:40;;;;;;;9.82;3.20;;;;;;;7.51;100.00;99764.47;10210386;29;20142;-69
2021/03/12 15:26:41;;;;;;;10.82;3.50;;;;;;;7.31;100.00;99742.69;10184042;29;20053;-69
2021/03/12 15:31:44;;;;;;;12.93;3.75;;;;;;;7.15;100.00;99719.81;10208632;29;20044;-69
2021/03/12 15:36:47;;;;;;;8.85;2.88;;;;;;;6.80;100.00;99679.44;10173250;29;20051;-68
2021/03/12 15:41:55;;;;;;;5.53;2.40;;;;;;;6.48;100.00;99643.38;10163535;29;20143;-69
2021/03/12 15:47:00;;;;;;;6.40;2.35;;;;;;;6.53;100.00;99688.47;10199487;29;20127;-69
2021/03/12 15:52:04;;;;;;;5.85;2.85;;;;;;;6.61;100.00;99696.03;10216518;29;20192;-68
2021/03/12 15:57:07;;;;;;;5.97;1.77;;;;;;;6.59;100.00;99693.47;10216568;29;20051;-69
2021/03/12 16:02:16;;;;;;;4.35;1.15;;;;;;;6.53;100.00;99658.88;10216112;29;20047;-68
2021/03/12 16:07:22;;;;;;;5.43;1.63;;;;;;;6.02;100.00;99606.09;10215545;29;20080;-69
2021/03/12 16:12:24;;;;;;;3.47;1.60;;;;;;;5.94;100.00;99641.31;10215598;29;20046;-69
2021/03/12 16:17:33;;;;;;;11.07;7.30;;;;;;;5.93;100.00;99655.28;10183239;29;20055;-69
2021/03/12 16:22:58;;;;;;;5.13;3.20;;;;;;;6.13;100.00;99696.28;10153618;29;20134;-69
2021/03/12 16:28:37;;;;;;;5.85;2.78;;;;;;;6.37;100.00;99722.28;10192484;29;20069;-68
2021/03/12 16:33:39;;;;;;;9.85;8.90;;;;;;;6.44;100.00;99725.53;10172913;29;20139;-69
2021/03/12 16:38:54;;;;;;;22.73;20.27;;;;;;;6.59;100.00;99724.03;10175201;29;20044;-69
2021/03/12 16:43:55;;;;;;;3.67;2.42;;;;;;;6.72;100.00;99735.66;10176530;29;20176;-70
2021/03/12 16:48:58;;;;;;;6.53;2.88;;;;;;;6.78;100.00;99714.47;10182986;29;20055;-69
2021/03/12 16:54:00;;;;;;;5.47;1.90;;;;;;;6.81;100.00;99715.19;10162963;29;20051;-69
2021/03/12 16:59:01;;;;;;;6.72;2.10;;;;;;;6.79;100.00;99705.69;10151042;29;20381;-68
2021/03/12 17:04:03;;;;;;;4.65;1.40;;;;;;;6.80;100.00;99694.31;10183856;29;20120;-69
2021/03/12 17:09:06;;;;;;;5.03;1.67;;;;;;;6.79;100.00;99708.31;10182989;29;20060;-69
2021/03/12 17:14:08;;;;;;;5.22;2.38;;;;;;;6.73;100.00;99701.59;10143999;29;20170;-69
2021/03/12 17:19:10;;;;;;;5.35;2.40;;;;;;;6.68;100.00;99689.63;10182011;29;20052;-69
2021/03/12 17:24:11;;;;;;;3.35;1.83;;;;;;;6.65;100.00;99680.13;10182245;29;20040;-69
2021/03/12 17:29:13;;;;;;;5.30;1.70;;;;;;;6.68;100.00;99697.47;10182137;29;20100;-69
2021/03/12 17:34:15;;;;;;;5.00;2.53;;;;;;;6.63;99.55;99687.19;10181781;29;20044;-68
2021/03/12 17:39:16;;;;;;;3.63;1.60;;;;;;;6.45;99.27;99667.03;10196705;29;20067;-69
2021/03/12 17:44:19;;;;;;;2.53;1.50;;;;;;;6.40;99.20;99669.84;10198604;29;20060;-68
2021/03/12 17:49:20;;;;;;;2.13;1.15;;;;;;;6.32;99.69;99664.09;10180436;29;20048;-69
2021/03/12 17:54:23;;;;;;;1.90;1.10;;;;;;;6.37;100.00;99695.28;10142701;29;20041;-69
2021/03/12 17:59:25;;;;;;;3.83;1.73;;;;;;;6.39;100.00;99693.47;10141341;29;20104;-67
2021/03/12 18:04:26;;;;;;;5.60;2.15;;;;;;;6.41;100.00;99704.72;10142902;29;20052;-69
2021/03/12 18:09:27;;;;;;;5.43;2.00;;;;;;;6.40;100.00;99689.94;10142243;29;20045;-68
2021/03/12 18:14:28;;;;;;;6.70;2.10;;;;;;;6.43;100.00;99695.91;10156079;29;20044;-69
2021/03/12 18:19:30;;;;;;;6.40;2.33;;;;;;;6.39;100.00;99686.47;10180549;29;20118;-69
2021/03/12 18:24:31;;;;;;;4.97;2.47;;;;;;;6.41;100.00;99699.47;10179808;29;20044;-69
2021/03/12 18:29:33;;;;;;;6.38;2.20;;;;;;;6.39;100.00;99698.69;10178805;29;20052;-69
2021/03/12 18:34:35;;;;;;;5.68;2.20;;;;;;;6.35;100.00;99702.38;10179454;29;20385;-68
2021/03/12 18:39:37;;;;;;;5.10;1.88;;;;;;;6.30;100.00;99699.91;10179612;29;20040;-68
2021/03/12 18:44:38;;;;;;;5.68;2.28;;;;;;;6.24;100.00;99694.94;10178515;29;20048;-69
2021/03/12 18:49:39;;;;;;;5.32;2.10;;;;;;;6.18;100.00;99700.44;10169117;29;20052;-69
2021/03/12 18:54:40;;;;;;;6.35;2.05;;;;;;;6.12;100.00;99708.50;10179662;29;20135;-69
2021/03/12 18:59:41;;;;;;;3.53;1.85;;;;;;;6.06;100.00;99695.69;10178925;29;20048;-68
2021/03/12 19:04:44;;;;;;;4.15;1.80;;;;;;;6.04;100.00;99697.50;10173641;29;20115;-69
2021/03/12 19:09:45;;;;;;;4.15;1.80;;;;;;;6.00;100.00;99688.09;10177682;29;20371;-67
2021/03/12 19:14:48;;;;;;;6.75;3.00;;;;;;;5.97;100.00;99688.22;10177348;29;20123;-68
2021/03/12 19:19:49;;;;;;;8.57;5.28;;;;;;;6.09;100.00;99700.81;10177463;29;20047;-69
2021/03/12 19:24:51;;;;;;;17.60;10.07;;;;;;;6.11;100.00;99701.56;10177284;29;20054;-68
2021/03/12 19:29:53;;;;;;;13.80;9.15;;;;;;;6.14;100.00;99695.38;10177894;29;20052;-69
2021/03/12 19:34:58;;;;;;;25.65;15.07;;;;;;;6.13;100.00;99704.13;10161572;29;20060;-68
2021/03/12 19:40:00;;;;;;;6.28;4.18;;;;;;;6.17;100.00;99706.59;10145062;29;20051;-68
2021/03/12 19:45:04;;;;;;;4.15;2.53;;;;;;;6.13;100.00;99706.75;10138316;29;20430;-68
2021/03/12 19:50:07;;;;;;;5.20;2.10;;;;;;;6.15;100.00;99710.16;10138583;29;20053;-68
2021/03/12 19:55:09;;;;;;;4.50;2.05;;;;;;;6.15;100.00;99713.63;10144307;29;20111;-68
2021/03/12 20:00:14;;;;;;;9.18;5.78;;;;;;;6.11;100.00;99717.25;10164963;29;20388;-68
2021/03/12 20:05:15;;;;;;;6.10;4.30;;;;;;;6.08;100.00;99709.56;10145055;29;20044;-68
2021/03/12 20:10:18;;;;;;;9.10;5.70;;;;;;;6.08;100.00;99720.03;10176587;29;20040;-68
2021/03/12 20:15:20;;;;;;;6.30;3.70;;;;;;;6.11;100.00;99722.50;10177065;29;20052;-69
2021/03/12 20:20:22;;;;;;;8.10;2.70;;;;;;;6.16;100.00;99723.19;10162269;29;20045;-68
2021/03/12 20:25:23;;;;;;;4.53;2.30;;;;;;;6.25;100.00;99732.41;10136296;29;20408;-69
2021/03/12 20:30:25;;;;;;;4.32;1.85;;;;;;;6.39;100.00;99746.63;10138027;29;20064;-69
2021/03/12 20:35:26;;;;;;;5.40;2.50;;;;;;;6.36;100.00;99741.50;10136533;29;20048;-67
2021/03/12 20:40:34;;;;;;;4.65;2.30;;;;;;;6.36;100.00;99736.28;10136493;29;20041;-69
2021/03/12 20:45:36;;;;;;;6.45;2.50;;;;;;;6.42;100.00;99754.38;10136751;29;20049;-69
2021/03/12 20:50:37;;;;;;;7.90;2.53;;;;;;;6.49;100.00;99741.88;10153894;29;20080;-69
2021/03/12 20:55:39;;;;;;;7.03;2.28;;;;;;;6.60;100.00;99757.13;10175328;29;20095;-69
2021/03/12 21:00:40;;;;;;;32.88;19.80;;;;;;;6.56;99.75;99742.47;10176358;29;20411;-69
2021/03/12 21:05:41;;;;;;;17.98;12.68;;;;;;;6.50;99.57;99737.50;10175752;29;20359;-69
2021/03/12 21:10:43;;;;;;;20.38;13.02;;;;;;;6.43;100.00;99743.00;10174313;29;20482;-69
2021/03/12 21:15:44;;;;;;;9.95;5.10;;;;;;;6.37;100.00;99724.06;10146520;29;20772;-69
2021/03/12 21:20:45;;;;;;;25.00;15.98;;;;;;;6.32;100.00;99723.41;10137738;29;20049;-69
2021/03/12 21:25:46;;;;;;;11.52;7.57;;;;;;;6.24;100.00;99718.50;10119897;29;20063;-68
2021/03/12 21:30:48;;;;;;;9.07;3.63;;;;;;;6.31;100.00;99729.53;10137007;29;20045;-69
2021/03/12 21:35:49;;;;;;;5.97;3.13;;;;;;;6.31;99.90;99732.16;10157175;29;20486;-68
2021/03/12 21:40:54;;;;;;;7.00;2.83;;;;;;;6.35;99.34;99739.84;10182828;29;20056;-69
2021/03/12 21:45:55;;;;;;;5.88;2.22;;;;;;;6.29;99.46;99724.38;10181413;29;20096;-68
2021/03/12 21:50:56;;;;;;;6.68;2.60;;;;;;;6.33;99.39;99730.34;10182941;29;20076;-69
2021/03/12 21:55:58;;;;;;;5.93;2.10;;;;;;;6.34;99.15;99732.91;10181363;29;20052;-69
2021/03/12 22:00:59;;;;;;;5.88;2.45;;;;;;;6.26;99.54;99711.44;10151655;29;20040;-70
2021/03/12 22:06:01;;;;;;;4.93;2.72;;;;;;;6.26;99.83;99721.91;10180836;29;20075;-69
2021/03/12 22:11:03;;;;;;;5.97;2.45;;;;;;;6.33;99.47;99723.34;10181294;29;20374;-69
2021/03/12 22:16:04;;;;;;;5.88;2.53;;;;;;;6.35;99.12;99724.16;10181171;29;20052;-69
2021/03/12 22:21:06;;;;;;;5.00;2.90;;;;;;;6.41;98.64;99734.34;10158018;29;20344;-67
2021/03/12 22:26:07;;;;;;;5.55;2.17;;;;;;;6.37;99.10;99717.06;10177818;29;20051;-68
2021/03/12 22:31:18;;;;;;;5.28;2.53;;;;;;;6.47;98.50;99733.22;10142068;29;20037;-68
2021/03/12 22:36:19;;;;;;;9.43;2.78;;;;;;;6.41;98.54;99720.41;10156012;29;20052;-68
2021/03/12 22:41:20;;;;;;;5.47;2.63;;;;;;;6.45;98.53;99712.34;10141946;29;20048;-69
2021/03/12 22:46:26;;;;;;;7.55;3.15;;;;;;;6.53;97.53;99732.16;10167496;29;20048;-68
2021/03/12 22:51:29;;;;;;;6.60;2.88;;;;;;;6.47;97.64;99710.53;10179271;29;20052;-68
2021/03/12 22:56:31;;;;;;;8.30;2.55;;;;;;;6.47;98.02;99705.31;10178753;29;20052;-69
2021/03/12 23:01:39;;;;;;;5.78;2.67;;;;;;;6.56;97.19;99717.16;10179935;29;20044;-69
2021/03/12 23:06:40;;;;;;;6.30;2.45;;;;;;;6.63;96.45;99710.75;10179401;29;20056;-69
2021/03/12 23:11:42;;;;;;;8.38;2.95;;;;;;;6.72;95.56;99718.19;10179281;29;20040;-67
2021/03/12 23:16:43;;;;;;;7.30;2.88;;;;;;;6.66;95.59;99694.91;10156713;29;20463;-68
2021/03/12 23:21:45;;;;;;;7.10;3.05;;;;;;;6.66;95.17;99688.84;10138868;29;20100;-68
2021/03/12 23:26:50;;;;;;;7.70;2.95;;;;;;;6.64;95.03;99677.56;10139493;29;20104;-68
2021/03/12 23:32:02;;;;;;;;;;;;;;;6.65;94.91;99661.81;10139937;29;20048;-68
2021/03/12 23:37:04;;;;;;;8.05;3.55;;;;;;;6.65;94.88;99660.94;10139075;29;20416;-69